Flood From: 19-02-2018 06:00 Until: 20-02-2018 06:00 warning for: Flood Level: Yellow info button

Although rather usual in this region, locally or potentially dangerous phenomena are expected. (such as local winds, summer thunderstorms, rising streams or high waves) Be aware and pay attention to the latest weather updates, especially if you carry out activities exposed to weather or close to a stream or shoreline. 


Meteo18 Weather Cam more information Meteo18 Weather Cam


Thunder radar more information blitzortung!


Rain radar more information rain snow radar


Visit our other weather sites:

Template documentation
and downloads

And another site



Weather Underground History page Text

Daily Summary for June 20, 2017 Units:  English    Metric   Both
« Previous Day
Next Day »
Daily Weekly Monthly Yearly Custom
  High: Low: Average:
Temperature: TemperatureC °F 18.9 °F 27.2 °F
Dew Point: DewpointC °F 16.4 °F 18 °F
Humidity: Humidity % 35 % 60 %
Wind Speed: WindSpeedKMH mph 0.0 mph 2.8 mph
Wind Gust: WindSpeedGustKMH mph - -
Wind:- - SSW
Pressure: PressurehPa in 1015.1 in -
Precipitation: 0.0 in    
Historical Graphs
 
 
Tabular Data for June 20, 2017
Time Temperature Dew Point Pressure Wind Wind Speed Wind Gust Humidity Rainfall Rate (Hourly)
TemperatureC °F DewpointC °F PressurehPa in Calm     Humidity % HourlyPrecipMM in
00:02 22.9 °F 17.8 °F 1017.2 in Calm     73 % 0.0 in
00:07 22.7 °F 17.8 °F 1017.2 in WNW 1.6 mph 1.6 mph 74 % 0.0 in
00:12 22.6 °F 17.7 °F 1017.2 in Calm   1.6 mph 74 % 0.0 in
00:17 22.6 °F 17.5 °F 1017.2 in Calm   1.6 mph 73 % 0.0 in
00:27 22.6 °F 17.5 °F 1017.2 in Calm   1.6 mph 73 % 0.0 in
00:32 22.6 °F 17.5 °F 1017.2 in Calm   1.6 mph 73 % 0.0 in
00:42 22.6 °F 17.5 °F 1017.2 in Calm   1.6 mph 73 % 0.0 in
00:47 22.4 °F 17.3 °F 1017.2 in Calm   1.6 mph 73 % 0.0 in
00:52 22.2 °F 17.6 °F 1017.2 in Calm   1.6 mph 75 % 0.0 in
00:57 22.0 °F 17.4 °F 1017.2 in Calm   1.6 mph 75 % 0.0 in
01:02 21.9 °F 17.5 °F 1017.2 in Calm   1.6 mph 76 % 0.0 in
01:07 21.8 °F 17.4 °F 1017.2 in Calm     76 % 0.0 in
01:12 21.6 °F 17.4 °F 1017.2 in Calm     77 % 0.0 in
01:17 21.7 °F 17.5 °F 1017.2 in Calm     77 % 0.0 in
01:22 21.8 °F 17.4 °F 1017.2 in Calm     76 % 0.0 in
01:32 21.6 °F 17.2 °F 1017.2 in ENE 1.6 mph   76 % 0.0 in
01:37 21.2 °F 17.2 °F 1017.2 in Calm   6.4 mph 78 % 0.0 in
01:42 20.9 °F 16.9 °F 1017.2 in SSW 1.6 mph 6.4 mph 78 % 0.0 in
01:47 20.6 °F 16.8 °F 1017.2 in Calm   6.4 mph 79 % 0.0 in
01:52 20.4 °F 17.0 °F 1017.2 in Calm   1.6 mph 81 % 0.0 in
01:57 20.3 °F 17.1 °F 1017.2 in Calm   1.6 mph 82 % 0.0 in
02:02 20.1 °F 16.9 °F 1017.2 in Calm   1.6 mph 82 % 0.0 in
02:12 20.3 °F 17.1 °F 1017.2 in Calm   3.2 mph 82 % 0.0 in
02:17 20.3 °F 16.9 °F 1017.2 in NNE 4.8 mph 4.8 mph 81 % 0.0 in
02:27 19.9 °F 16.7 °F 1017.2 in North 1.6 mph 6.4 mph 82 % 0.0 in
02:32 19.9 °F 16.9 °F 1017.2 in West 3.2 mph 6.4 mph 83 % 0.0 in
02:42 20.2 °F 17.0 °F 1017.2 in Calm   6.4 mph 82 % 0.0 in
02:47 20.6 °F 17.2 °F 1017.2 in NNW 1.6 mph 6.4 mph 81 % 0.0 in
02:52 21.0 °F 17.2 °F 1016.8 in NNW 3.2 mph 3.2 mph 79 % 0.0 in
02:57 21.2 °F 17.2 °F 1016.8 in NW 4.8 mph 4.8 mph 78 % 0.0 in
03:02 21.1 °F 17.1 °F 1016.8 in Calm   4.8 mph 78 % 0.0 in
03:07 20.9 °F 17.1 °F 1016.8 in Calm   4.8 mph 79 % 0.0 in
03:12 20.7 °F 16.9 °F 1016.8 in West 1.6 mph 4.8 mph 79 % 0.0 in
03:17 20.6 °F 17.2 °F 1016.8 in SW 4.8 mph 4.8 mph 81 % 0.0 in
03:22 20.2 °F 16.8 °F 1017.2 in Calm   16.1 mph 81 % 0.0 in
03:27 20.2 °F 16.8 °F 1017.2 in Calm   16.1 mph 81 % 0.0 in
03:32 20.2 °F 16.8 °F 1017.2 in SE 1.6 mph 16.1 mph 81 % 0.0 in
03:42 20.2 °F 16.8 °F 1017.2 in Calm   3.2 mph 81 % 0.0 in
03:47 20.2 °F 16.8 °F 1017.2 in Calm   3.2 mph 81 % 0.0 in
03:52 20.2 °F 17.0 °F 1017.2 in Calm   3.2 mph 82 % 0.0 in
03:57 20.2 °F 16.8 °F 1017.2 in Calm   3.2 mph 81 % 0.0 in
04:02 20.2 °F 16.8 °F 1017.2 in Calm   3.2 mph 81 % 0.0 in
04:07 20.0 °F 16.6 °F 1016.8 in Calm     81 % 0.0 in
04:12 19.8 °F 16.6 °F 1016.8 in Calm     82 % 0.0 in
04:17 19.6 °F 16.6 °F 1017.2 in Calm     83 % 0.0 in
04:22 19.4 °F 16.6 °F 1016.8 in Calm     84 % 0.0 in
04:32 19.4 °F 16.8 °F 1016.8 in Calm   1.6 mph 85 % 0.0 in
04:42 19.9 °F 16.9 °F 1016.8 in Calm   1.6 mph 83 % 0.0 in
04:47 20.1 °F 16.9 °F 1016.8 in Calm   1.6 mph 82 % 0.0 in
04:52 19.8 °F 16.8 °F 1016.8 in Calm   1.6 mph 83 % 0.0 in
05:02 19.8 °F 16.8 °F 1016.8 in Calm     83 % 0.0 in
05:12 19.6 °F 16.8 °F 1016.8 in Calm     84 % 0.0 in
05:17 19.4 °F 16.6 °F 1017.2 in Calm     84 % 0.0 in
05:22 19.3 °F 16.5 °F 1017.2 in Calm     84 % 0.0 in
05:32 19.1 °F 16.5 °F 1017.2 in Calm     85 % 0.0 in
05:37 19.0 °F 16.6 °F 1017.2 in Calm   3.2 mph 86 % 0.0 in
05:42 19.0 °F 16.6 °F 1017.2 in Calm   3.2 mph 86 % 0.0 in
05:47 19.2 °F 16.8 °F 1017.2 in Calm   3.2 mph 86 % 0.0 in
05:52 19.3 °F 16.7 °F 1017.2 in Calm   3.2 mph 85 % 0.0 in
06:02 19.2 °F 16.6 °F 1017.2 in Calm   3.2 mph 85 % 0.0 in
06:12 19.0 °F 16.4 °F 1017.2 in Calm   1.6 mph 85 % 0.0 in
06:17 18.9 °F 16.5 °F 1017.2 in Calm     86 % 0.0 in
06:22 18.9 °F 16.5 °F 1017.2 in Calm     86 % 0.0 in
06:32 19.0 °F 16.8 °F 1017.2 in Calm   1.6 mph 87 % 0.0 in
06:42 19.1 °F 16.7 °F 1017.5 in Calm   1.6 mph 86 % 0.0 in
07:02 19.4 °F 16.8 °F 1017.5 in Calm     85 % 0.0 in
07:12 20.2 °F 17.4 °F 1017.5 in Calm     84 % 0.0 in
07:17 20.9 °F 17.9 °F 1017.5 in Calm     83 % 0.0 in
07:22 21.3 °F 17.9 °F 1017.5 in Calm     81 % 0.0 in
07:32 22.1 °F 18.1 °F 1017.5 in Calm     78 % 0.0 in
07:42 22.4 °F 18.6 °F 1017.5 in Calm     79 % 0.0 in
07:47 22.7 °F 18.5 °F 1017.5 in Calm     77 % 0.0 in
07:52 22.3 °F 18.1 °F 1017.5 in Calm     77 % 0.0 in
08:02 22.9 °F 18.9 °F 1017.8 in Calm     78 % 0.0 in
08:07 23.4 °F 18.9 °F 1017.8 in Calm     76 % 0.0 in
08:12 23.9 °F 19.0 °F 1017.8 in Calm     74 % 0.0 in
08:17 24.1 °F 19.0 °F 1017.8 in Calm     73 % 0.0 in
08:22 24.2 °F 19.1 °F 1017.8 in Calm     73 % 0.0 in
08:32 24.8 °F 19.2 °F 1017.8 in Calm   3.2 mph 71 % 0.0 in
08:42 25.6 °F 19.3 °F 1017.8 in Calm   3.2 mph 68 % 0.0 in
08:47 25.7 °F 19.1 °F 1017.8 in Calm   1.6 mph 67 % 0.0 in
08:52 25.8 °F 19.4 °F 1017.5 in Calm   1.6 mph 68 % 0.0 in
09:02 26.6 °F 19.5 °F 1017.8 in SSE 3.2 mph 3.2 mph 65 % 0.0 in
09:12 26.3 °F 18.9 °F 1017.8 in SSW 3.2 mph 3.2 mph 64 % 0.0 in
09:17 26.4 °F 18.8 °F 1017.8 in SE 3.2 mph 8.0 mph 63 % 0.0 in
09:22 26.6 °F 19.5 °F 1017.8 in SSW 1.6 mph 8.0 mph 65 % 0.0 in
09:32 27.3 °F 19.1 °F 1017.8 in SW 3.2 mph 8.0 mph 61 % 0.0 in
09:42 27.7 °F 19.0 °F 1017.8 in SW 1.6 mph 4.8 mph 59 % 0.0 in
09:47 27.7 °F 19.0 °F 1017.8 in SSW 1.6 mph 8.0 mph 59 % 0.0 in
09:52 27.8 °F 18.8 °F 1017.8 in WSW 3.2 mph 8.0 mph 58 % 0.0 in
09:57 27.9 °F 18.9 °F 1017.5 in SW 3.2 mph 8.0 mph 58 % 0.0 in
10:02 28.2 °F 18.6 °F 1017.8 in SSW 6.4 mph 8.0 mph 56 % 0.0 in
10:12 28.6 °F 18.7 °F 1017.5 in SSW 1.6 mph 9.7 mph 55 % 0.0 in
10:17 28.8 °F 18.6 °F 1017.5 in Calm   9.7 mph 54 % 0.0 in
10:22 29.2 °F 18.6 °F 1017.5 in ESE 3.2 mph 9.7 mph 53 % 0.0 in
10:32 29.2 °F 18.9 °F 1017.5 in SW 6.4 mph 6.4 mph 54 % 0.0 in
10:42 29.5 °F 18.6 °F 1017.8 in SW 1.6 mph 8.0 mph 52 % 0.0 in
10:52 29.2 °F 18.6 °F 1017.8 in SW 3.2 mph 9.7 mph 53 % 0.0 in
11:02 29.4 °F 18.5 °F 1017.8 in SSW 6.4 mph 12.9 mph 52 % 0.0 in
11:12 29.6 °F 18.7 °F 1017.8 in SW 6.4 mph 11.3 mph 52 % 0.0 in
11:17 29.7 °F 19.4 °F 1017.8 in SW 4.8 mph 9.7 mph 54 % 0.0 in
11:22 29.7 °F 18.8 °F 1017.8 in Calm   9.7 mph 52 % 0.0 in
11:32 30.4 °F 19.4 °F 1017.8 in SW 8.0 mph 11.3 mph 52 % 0.0 in
11:42 30.7 °F 19.4 °F 1017.8 in SSW 6.4 mph 11.3 mph 51 % 0.0 in
11:47 30.6 °F 19.6 °F 1017.8 in WSW 8.0 mph 11.3 mph 52 % 0.0 in
11:52 30.7 °F 19.4 °F 1017.8 in SSW 3.2 mph 11.3 mph 51 % 0.0 in
12:02 31.2 °F 19.2 °F 1017.8 in SSW 1.6 mph 12.9 mph 49 % 0.0 in
12:07 31.3 °F 19.6 °F 1017.8 in South 4.8 mph 6.4 mph 50 % 0.0 in
12:12 31.3 °F 19.3 °F 1017.8 in South 1.6 mph 6.4 mph 49 % 0.0 in
12:17 31.6 °F 19.2 °F 1017.8 in Calm   9.7 mph 48 % 0.0 in
12:22 31.9 °F 19.5 °F 1017.8 in SSW 4.8 mph 9.7 mph 48 % 0.0 in
12:32 31.9 °F 19.5 °F 1017.8 in SE 1.6 mph 8.0 mph 48 % 0.0 in
12:42 32.8 °F 19.7 °F 1017.5 in Calm   9.7 mph 46 % 0.0 in
12:47 32.4 °F 19.3 °F 1017.5 in South 4.8 mph 9.7 mph 46 % 0.0 in
12:52 32.3 °F 18.8 °F 1017.5 in ESE 4.8 mph 9.7 mph 45 % 0.0 in
12:57 32.2 °F 19.5 °F 1017.5 in South 4.8 mph 9.7 mph 47 % 0.0 in
13:02 32.2 °F 19.1 °F 1017.5 in SSW 3.2 mph 9.7 mph 46 % 0.0 in
13:12 32.4 °F 18.9 °F 1017.5 in ESE 1.6 mph 11.3 mph 45 % 0.0 in
13:17 32.3 °F 18.8 °F 1017.5 in West 4.8 mph 14.5 mph 45 % 0.0 in
13:22 32.3 °F 18.8 °F 1017.5 in West 3.2 mph 14.5 mph 45 % 0.0 in
13:27 32.3 °F 18.5 °F 1017.5 in West 3.2 mph 14.5 mph 44 % 0.0 in
13:32 32.5 °F 19.0 °F 1017.2 in SW 4.8 mph 14.5 mph 45 % 0.0 in
13:37 32.6 °F 19.1 °F 1017.2 in SE 4.8 mph 11.3 mph 45 % 0.0 in
13:42 32.6 °F 19.1 °F 1017.2 in Calm   11.3 mph 45 % 0.0 in
13:47 32.6 °F 18.8 °F 1017.2 in NNE 3.2 mph 9.7 mph 44 % 0.0 in
13:52 32.8 °F 18.9 °F 1017.2 in SSW 3.2 mph 9.7 mph 44 % 0.0 in
13:57 33.1 °F 19.9 °F 1017.2 in SE 1.6 mph 12.9 mph 46 % 0.0 in
14:02 33.7 °F 19.4 °F 1017.2 in East 3.2 mph 12.9 mph 43 % 0.0 in
14:12 33.3 °F 18.6 °F 1017.2 in West 6.4 mph 12.9 mph 42 % 0.0 in
14:17 33.4 °F 19.1 °F 1017.2 in West 1.6 mph 12.9 mph 43 % 0.0 in
14:22 33.2 °F 18.9 °F 1017.2 in SW 3.2 mph 14.5 mph 43 % 0.0 in
14:32 33.2 °F 18.2 °F 1017.2 in South 9.7 mph 14.5 mph 41 % 0.0 in
14:37 33.2 °F 18.9 °F 1016.8 in ENE 1.6 mph 12.9 mph 43 % 0.0 in
14:42 33.7 °F 18.2 °F 1016.8 in SE 6.4 mph 12.9 mph 40 % 0.0 in
14:47 33.9 °F 18.0 °F 1016.8 in ESE 1.6 mph 12.9 mph 39 % 0.0 in
14:52 33.9 °F 18.0 °F 1016.8 in SW 8.0 mph 9.7 mph 39 % 0.0 in
14:57 33.9 °F 17.6 °F 1016.8 in SSW 4.8 mph 16.1 mph 38 % 0.0 in
15:02 33.8 °F 17.9 °F 1016.8 in SSW 6.4 mph 16.1 mph 39 % 0.0 in
15:07 33.8 °F 17.5 °F 1016.8 in WNW 4.8 mph 17.7 mph 38 % 0.0 in
15:12 33.9 °F 16.7 °F 1016.5 in WSW 6.4 mph 17.7 mph 36 % 0.0 in
15:22 34.0 °F 17.3 °F 1016.8 in NNW 6.4 mph 16.1 mph 37 % 0.0 in
15:32 34.1 °F 16.9 °F 1016.5 in Calm   16.1 mph 36 % 0.0 in
15:42 34.3 °F 16.6 °F 1016.5 in WNW 4.8 mph 8.0 mph 35 % 0.0 in
15:47 34.1 °F 16.5 °F 1016.5 in Calm   11.3 mph 35 % 0.0 in
15:52 34.2 °F 17.4 °F 1016.5 in SSW 6.4 mph 11.3 mph 37 % 0.0 in
15:57 34.4 °F 17.2 °F 1016.5 in WNW 4.8 mph 16.1 mph 36 % 0.0 in
16:02 34.3 °F 16.6 °F 1016.5 in West 3.2 mph 16.1 mph 35 % 0.0 in
16:12 34.2 °F 16.5 °F 1016.1 in NW 6.4 mph 14.5 mph 35 % 0.0 in
16:22 34.5 °F 17.7 °F 1016.1 in SW 8.0 mph 17.7 mph 37 % 0.0 in
16:32 34.4 °F 17.2 °F 1016.1 in West 4.8 mph 19.3 mph 36 % 0.0 in
16:37 34.2 °F 17.4 °F 1016.1 in WSW 3.2 mph 12.9 mph 37 % 0.0 in
16:42 34.3 °F 17.5 °F 1016.1 in West 6.4 mph 12.9 mph 37 % 0.0 in
16:52 34.4 °F 17.2 °F 1016.1 in WNW 4.8 mph 12.9 mph 36 % 0.0 in
17:02 34.1 °F 16.9 °F 1016.1 in SSW 4.8 mph 12.9 mph 36 % 0.0 in
17:12 34.6 °F 16.9 °F 1015.8 in WSW 4.8 mph 8.0 mph 35 % 0.0 in
17:17 34.3 °F 16.6 °F 1015.8 in SW 3.2 mph 6.4 mph 35 % 0.0 in
17:22 34.6 °F 16.9 °F 1015.8 in SW 4.8 mph 6.4 mph 35 % 0.0 in
17:32 35.3 °F 17.5 °F 1015.8 in North 8.0 mph 8.0 mph 35 % 0.0 in
17:37 34.8 °F 17.5 °F 1015.8 in NNW 3.2 mph 11.3 mph 36 % 0.0 in
17:42 34.9 °F 17.2 °F 1015.8 in West 6.4 mph 11.3 mph 35 % 0.0 in
17:52 34.8 °F 17.5 °F 1015.5 in NW 6.4 mph 14.5 mph 36 % 0.0 in
17:57 34.7 °F 17.4 °F 1015.5 in NNE 4.8 mph 14.5 mph 36 % 0.0 in
18:02 34.6 °F 17.3 °F 1015.5 in WNW 3.2 mph 14.5 mph 36 % 0.0 in
18:07 34.4 °F 16.7 °F 1015.5 in WNW 1.6 mph 12.9 mph 35 % 0.0 in
18:12 34.4 °F 17.2 °F 1015.5 in NW 4.8 mph 12.9 mph 36 % 0.0 in
18:17 34.2 °F 16.5 °F 1015.5 in West 4.8 mph 12.9 mph 35 % 0.0 in
18:22 34.0 °F 16.8 °F 1015.5 in NNW 3.2 mph 12.9 mph 36 % 0.0 in
18:27 33.9 °F 16.7 °F 1015.5 in NW 1.6 mph 12.9 mph 36 % 0.0 in
18:32 33.8 °F 17.1 °F 1015.5 in WNW 1.6 mph 9.7 mph 37 % 0.0 in
18:37 33.8 °F 17.5 °F 1015.5 in WNW 4.8 mph 9.7 mph 38 % 0.0 in
18:42 33.6 °F 17.3 °F 1015.5 in WNW 3.2 mph 6.4 mph 38 % 0.0 in
18:47 33.4 °F 17.1 °F 1015.5 in NW 3.2 mph 8.0 mph 38 % 0.0 in
18:52 33.2 °F 17.4 °F 1015.1 in WNW 3.2 mph 8.0 mph 39 % 0.0 in
18:57 33.1 °F 18.1 °F 1015.1 in Calm   8.0 mph 41 % 0.0 in
19:02 33.1 °F 18.5 °F 1015.5 in Calm   8.0 mph 42 % 0.0 in
19:12 32.8 °F 17.8 °F 1015.1 in WNW 1.6 mph 4.8 mph 41 % 0.0 in
19:17 32.8 °F 18.6 °F 1015.1 in Calm   4.8 mph 43 % 0.0 in
19:22 32.7 °F 18.1 °F 1015.1 in Calm   4.8 mph 42 % 0.0 in
19:32 32.5 °F 18.7 °F 1015.5 in WNW 3.2 mph 4.8 mph 44 % 0.0 in
19:42 32.2 °F 19.1 °F 1015.5 in Calm   4.8 mph 46 % 0.0 in
19:47 32.0 °F 18.6 °F 1015.5 in Calm   3.2 mph 45 % 0.0 in
19:57 32.1 °F 19.4 °F 1015.5 in Calm   1.6 mph 47 % 0.0 in
20:02 31.6 °F 20.2 °F 1015.5 in Calm   1.6 mph 51 % 0.0 in
20:07 31.2 °F 19.2 °F 1015.5 in Calm   1.6 mph 49 % 0.0 in
20:12 31.2 °F 19.2 °F 1015.5 in Calm   1.6 mph 49 % 0.0 in
20:17 31.2 °F 19.2 °F 1015.5 in Calm   1.6 mph 49 % 0.0 in
20:22 31.1 °F 20.1 °F 1015.8 in Calm     52 % 0.0 in
20:32 30.8 °F 19.8 °F 1015.8 in Calm     52 % 0.0 in
20:42 30.7 °F 19.7 °F 1015.8 in Calm     52 % 0.0 in
20:47 30.6 °F 19.0 °F 1015.8 in Calm     50 % 0.0 in
20:52 30.7 °F 20.0 °F 1015.8 in Calm     53 % 0.0 in
21:02 30.6 °F 19.6 °F 1015.8 in Calm     52 % 0.0 in
21:12 29.8 °F 19.8 °F 1015.8 in NE 1.6 mph 4.8 mph 55 % 0.0 in
21:17 29.6 °F 19.0 °F 1015.5 in ENE 3.2 mph 4.8 mph 53 % 0.0 in
21:22 29.9 °F 19.0 °F 1015.8 in NE 3.2 mph 8.0 mph 52 % 0.0 in
21:27 29.7 °F 19.1 °F 1015.8 in East 6.4 mph 8.0 mph 53 % 0.0 in
21:32 29.7 °F 18.8 °F 1015.5 in NE 3.2 mph 8.0 mph 52 % 0.0 in
21:42 29.4 °F 19.1 °F 1015.8 in NNE 1.6 mph 6.4 mph 54 % 0.0 in
21:52 29.2 °F 19.2 °F 1015.8 in NE 3.2 mph 4.8 mph 55 % 0.0 in
21:57 29.2 °F 19.2 °F 1015.8 in NE 1.6 mph 4.8 mph 55 % 0.0 in
22:02 29.0 °F 19.3 °F 1016.1 in ENE 1.6 mph 4.8 mph 56 % 0.0 in
22:07 28.7 °F 19.3 °F 1016.1 in NE 3.2 mph 4.8 mph 57 % 0.0 in
22:17 28.3 °F 19.8 °F 1016.1 in Calm   4.8 mph 60 % 0.0 in
22:22 27.9 °F 19.4 °F 1016.1 in WNW 1.6 mph 3.2 mph 60 % 0.0 in
22:27 27.8 °F 19.3 °F 1015.8 in Calm   1.6 mph 60 % 0.0 in
22:32 27.8 °F 19.3 °F 1015.8 in Calm   1.6 mph 60 % 0.0 in
22:37 27.8 °F 19.3 °F 1015.8 in NNE 3.2 mph 3.2 mph 60 % 0.0 in
22:42 28.0 °F 19.5 °F 1016.1 in Calm   3.2 mph 60 % 0.0 in
22:47 27.9 °F 19.7 °F 1016.1 in Calm   3.2 mph 61 % 0.0 in
22:52 27.7 °F 19.5 °F 1016.5 in Calm   3.2 mph 61 % 0.0 in
22:57 27.1 °F 20.0 °F 1017.2 in SW 29.0 mph 29.0 mph 65 % 0.0 in
23:07 24.3 °F 19.1 °F 1017.5 in WSW 30.6 mph 37.0 mph 73 % 0.0 in
23:12 23.6 °F 18.9 °F 1017.8 in WSW 20.9 mph 38.6 mph 75 % 0.0 in
23:17 23.3 °F 18.8 °F 1017.8 in SW 19.3 mph 38.6 mph 76 % 0.0 in
23:22 23.3 °F 18.8 °F 1017.8 in WSW 30.6 mph 38.6 mph 76 % 0.0 in
23:27 22.6 °F 18.6 °F 1017.8 in West 12.9 mph 37.0 mph 78 % 0.0 in
23:32 22.2 °F 18.6 °F 1017.5 in West 16.1 mph 37.0 mph 80 % 0.0 in
23:37 22.4 °F 18.2 °F 1017.2 in WNW 9.7 mph 37.0 mph 77 % 0.0 in
23:42 22.7 °F 18.5 °F 1017.2 in WNW 12.9 mph 29.0 mph 77 % 0.0 in
23:52 22.7 °F 18.7 °F 1016.8 in West 8.0 mph 20.9 mph 78 % 0.0 in
Meteo18
Compliments of Weather Underground - 4 mb

Script developed by  Jim McMurry - jmcmurry@mwt.net Adapted for the template by  Wim van der Kuil - Leuven-Template.eu

You find our weather info also at:

European Weather Network

Weather Underground

Equipment we use:

Weather-station
Davis Vue

Weather-program
Meteobridge

Weather-server
Raspberry PI 2 B+

Provider
1 and 1

Davis Vue

Meteobridge

Raspberry PI 2 B+

1 and 1